Terminal Aerodrome Forecast
Issued by NWS

Current Version | Previous Version | Text Only | Print | Product List | Glossary On
Versions: 1 2 3 4 5 6 7 8 9 10 11 12 13 14 15 16
000
FTUS46 KPQR 300000 AAA
TAFONP
TAF AMD
KONP 300000Z 3000/3024 21010KT P6SM BKN080 OVC150
     FM300300 19011KT P6SM -RA SCT008 BKN025
     FM300500 21014G20KT P6SM -RA BKN008 OVC015
     FM301300 32007KT P6SM -RA BKN015 OVC040
     FM302000 30011KT P6SM VCSH SCT015 BKN040=

USA.gov is the U.S. government's official web portal to all federal, state and local government web resources and services.